Time;durP1;ratioP1;P1;durP2;ratioP2;P2;SDS_P1;SDS_P2;PMS_P1;PMS_P2;Temp;Humidity;BMP_temperature;BMP_pressure;BME280_temperature;BME280_humidity;BME280_pressure;Samples;Min_cycle;Max_cycle;Signal;HPM_P1;HPM_P2
2021/08/17 00:00:19;;;;;;;4.03;2.10;;;16.10;1.00;;;;;;5091575;28;20576;-55
2021/08/17 00:02:45;;;;;;;3.80;2.30;;;16.00;1.00;;;;;;5092003;28;20179;-54
2021/08/17 00:05:11;;;;;;;4.20;2.30;;;16.10;1.00;;;;;;5091611;28;20187;-55
2021/08/17 00:07:36;;;;;;;3.63;2.70;;;16.20;1.00;;;;;;5091804;28;20186;-54
2021/08/17 00:10:03;;;;;;;2.50;1.97;;;16.20;1.00;;;;;;5085680;28;20440;-55
2021/08/17 00:12:29;;;;;;;3.07;2.17;;;16.20;1.00;;;;;;5091586;28;20217;-54
2021/08/17 00:14:55;;;;;;;5.20;2.60;;;16.30;1.00;;;;;;5091377;28;20804;-54
2021/08/17 00:17:20;;;;;;;4.60;2.50;;;16.30;1.00;;;;;;5091303;28;20253;-56
2021/08/17 00:19:46;;;;;;;4.63;2.60;;;16.30;1.00;;;;;;5077713;28;20658;-52
2021/08/17 00:22:13;;;;;;;3.80;2.77;;;16.20;1.00;;;;;;5071061;28;20187;-56
2021/08/17 00:24:39;;;;;;;3.80;2.47;;;16.10;1.00;;;;;;5071202;28;20175;-52
2021/08/17 00:27:05;;;;;;;3.90;2.60;;;16.00;1.00;;;;;;5071134;28;20507;-53
2021/08/17 00:29:30;;;;;;;5.70;2.17;;;15.90;1.00;;;;;;5071097;28;20192;-52
2021/08/17 00:31:56;;;;;;;4.07;2.40;;;15.90;1.00;;;;;;5071053;28;20191;-55
2021/08/17 00:34:21;;;;;;;4.47;3.10;;;16.00;1.00;;;;;;5074149;28;20188;-52
2021/08/17 00:36:51;;;;;;;4.37;2.87;;;15.90;1.00;;;;;;5070974;28;20179;-54
2021/08/17 00:39:17;;;;;;;3.47;2.20;;;15.90;1.00;;;;;;5070686;28;20232;-54
2021/08/17 00:41:45;;;;;;;4.30;2.67;;;15.80;1.00;;;;;;5076905;28;20437;-54
2021/08/17 00:44:28;;;;;;;4.83;2.77;;;15.90;1.00;;;;;;5088995;28;20934;-53
2021/08/17 00:46:57;;;;;;;6.10;3.03;;;15.90;1.00;;;;;;5072691;28;20448;-54
2021/08/17 00:49:23;;;;;;;4.90;2.63;;;15.80;1.00;;;;;;5070544;28;20452;-53
2021/08/17 00:51:52;;;;;;;8.90;3.23;;;15.90;1.00;;;;;;5070857;28;20441;-54
2021/08/17 00:54:19;;;;;;;8.10;2.63;;;15.90;1.00;;;;;;5070715;28;20542;-55
2021/08/17 00:56:45;;;;;;;7.37;3.07;;;16.00;1.00;;;;;;5070764;28;20922;-53
2021/08/17 00:59:10;;;;;;;7.73;3.10;;;15.80;1.00;;;;;;5070986;28;20437;-53
2021/08/17 01:01:36;;;;;;;7.87;3.07;;;15.80;1.00;;;;;;5069964;28;20237;-54
2021/08/17 01:04:03;;;;;;;8.13;3.47;;;15.80;1.00;;;;;;5070895;28;20695;-53
2021/08/17 01:06:30;;;;;;;4.10;2.87;;;15.90;1.00;;;;;;5070327;28;20788;-53
2021/08/17 01:08:55;;;;;;;8.60;3.10;;;15.90;1.00;;;;;;5070506;28;20441;-53
2021/08/17 01:11:21;;;;;;;9.20;3.10;;;16.00;1.00;;;;;;5070108;28;20512;-51
2021/08/17 01:13:51;;;;;;;3.50;2.70;;;16.00;1.00;;;;;;5070435;28;20207;-52
2021/08/17 01:16:19;;;;;;;5.67;3.10;;;15.90;1.00;;;;;;5074065;28;20179;-52
2021/08/17 01:18:45;;;;;;;4.20;2.87;;;15.90;1.00;;;;;;5070153;28;20469;-53
2021/08/17 01:21:11;;;;;;;6.33;2.67;;;15.90;1.00;;;;;;5075525;28;20428;-55
2021/08/17 01:23:36;;;;;;;4.37;3.10;;;16.00;1.00;;;;;;5070538;28;20211;-54
2021/08/17 01:26:02;;;;;;;4.17;2.37;;;16.10;1.00;;;;;;5070462;28;20448;-55
2021/08/17 01:28:28;;;;;;;3.93;2.60;;;16.00;1.00;;;;;;5070196;28;20188;-51
2021/08/17 01:31:05;;;;;;;4.73;2.90;;;16.00;1.00;;;;;;5070591;28;20490;-54
2021/08/17 01:33:32;;;;;;;4.03;2.40;;;15.80;1.00;;;;;;5071481;28;20214;-53
2021/08/17 01:35:58;;;;;;;4.30;2.77;;;15.80;1.00;;;;;;5070402;28;20946;-55
2021/08/17 01:38:24;;;;;;;5.83;2.30;;;15.90;1.00;;;;;;5070010;28;20434;-53
2021/08/17 01:40:50;;;;;;;3.63;2.53;;;15.90;1.00;;;;;;5070084;28;20215;-52
2021/08/17 01:43:17;;;;;;;4.47;2.90;;;15.90;1.00;;;;;;5068891;28;20442;-53
2021/08/17 01:45:51;;;;;;;4.00;2.33;;;16.00;1.00;;;;;;5074427;28;20461;-53
2021/08/17 01:48:16;;;;;;;6.33;2.63;;;15.70;1.00;;;;;;5070322;28;20464;-54
2021/08/17 01:50:42;;;;;;;5.90;2.80;;;15.70;1.00;;;;;;5069692;28;20928;-51
2021/08/17 01:53:07;;;;;;;5.23;3.17;;;15.50;1.00;;;;;;5070120;28;20215;-52
2021/08/17 01:55:33;;;;;;;8.20;2.87;;;15.50;1.00;;;;;;5070344;28;20220;-53
2021/08/17 01:58:02;;;;;;;6.27;3.60;;;15.60;1.00;;;;;;5082465;28;20195;-52
2021/08/17 02:00:27;;;;;;;6.00;3.03;;;15.70;1.00;;;;;;5073552;28;20634;-53
2021/08/17 02:02:53;;;;;;;7.13;3.10;;;15.60;1.00;;;;;;5069903;28;20528;-52
2021/08/17 02:05:21;;;;;;;5.93;3.17;;;15.70;1.00;;;;;;5068528;28;20203;-53
2021/08/17 02:07:46;;;;;;;6.50;3.67;;;15.70;1.00;;;;;;5077721;28;20236;-53
2021/08/17 02:10:13;;;;;;;5.40;3.00;;;15.80;1.00;;;;;;5090132;28;20832;-53
2021/08/17 02:12:38;;;;;;;8.90;3.47;;;15.80;1.00;;;;;;5091708;28;20965;-55
2021/08/17 02:15:05;;;;;;;5.70;3.33;;;15.80;1.00;;;;;;5092925;28;20447;-53
2021/08/17 02:17:30;;;;;;;6.27;2.80;;;15.60;1.00;;;;;;5091133;28;20226;-51
2021/08/17 02:19:56;;;;;;;4.97;2.90;;;15.50;1.00;;;;;;5093038;28;20440;-52
2021/08/17 02:22:22;;;;;;;7.43;3.93;;;15.40;1.00;;;;;;5092591;28;20193;-51
2021/08/17 02:24:47;;;;;;;5.77;3.10;;;15.40;1.00;;;;;;5082065;28;20191;-55
2021/08/17 02:27:13;;;;;;;3.57;3.27;;;15.40;1.00;;;;;;5075528;28;20480;-53
2021/08/17 02:29:38;;;;;;;5.60;3.30;;;15.40;1.00;;;;;;5079790;28;20198;-53
2021/08/17 02:32:04;;;;;;;6.57;3.40;;;15.20;1.00;;;;;;5087986;28;20190;-53
2021/08/17 02:34:29;;;;;;;6.03;2.90;;;15.20;1.00;;;;;;5073838;28;20266;-52
2021/08/17 02:36:55;;;;;;;7.57;3.20;;;15.20;1.00;;;;;;5088843;28;20273;-51
2021/08/17 02:39:20;;;;;;;4.93;3.47;;;15.20;1.00;;;;;;5093196;28;20261;-54
2021/08/17 02:41:46;;;;;;;4.80;2.90;;;15.40;1.00;;;;;;5079811;28;20625;-51
2021/08/17 02:44:11;;;;;;;4.23;3.37;;;15.30;1.00;;;;;;5075281;28;20696;-55
2021/08/17 02:46:37;;;;;;;9.60;3.87;;;15.40;1.00;;;;;;5081648;28;20194;-53
2021/08/17 02:49:04;;;;;;;8.03;2.93;;;15.20;1.00;;;;;;5079833;28;20195;-53
2021/08/17 02:51:29;;;;;;;3.30;3.00;;;15.30;1.00;;;;;;5072074;28;20216;-53
2021/08/17 02:53:55;;;;;;;5.73;3.57;;;15.40;1.00;;;;;;5078740;28;20986;-52
2021/08/17 02:56:20;;;;;;;6.00;3.40;;;15.30;1.00;;;;;;5072753;28;20198;-53
2021/08/17 02:58:46;;;;;;;3.70;3.30;;;15.20;1.00;;;;;;5075846;28;20176;-55
2021/08/17 03:01:12;;;;;;;5.50;2.97;;;15.20;1.00;;;;;;5073412;28;20529;-54
2021/08/17 03:03:37;;;;;;;4.43;3.57;;;15.20;1.00;;;;;;5085645;28;20245;-55
2021/08/17 03:06:03;;;;;;;9.60;3.30;;;15.10;1.00;;;;;;5078102;28;20437;-53
2021/08/17 03:08:28;;;;;;;8.23;4.17;;;15.20;1.00;;;;;;5075594;28;20194;-54
2021/08/17 03:10:54;;;;;;;6.37;3.80;;;15.10;1.00;;;;;;5074930;28;20191;-55
2021/08/17 03:13:19;;;;;;;9.57;4.33;;;15.00;1.00;;;;;;5087542;28;20202;-54
2021/08/17 03:15:45;;;;;;;6.33;3.40;;;15.00;1.00;;;;;;5088161;28;20216;-52
2021/08/17 03:18:11;;;;;;;4.87;3.40;;;15.10;1.00;;;;;;5081853;28;20207;-52
2021/08/17 03:20:37;;;;;;;5.73;3.20;;;15.10;1.00;;;;;;5073013;28;20184;-52
2021/08/17 03:23:04;;;;;;;7.50;3.40;;;14.90;1.00;;;;;;5091146;28;20575;-54
2021/08/17 03:25:29;;;;;;;4.53;2.87;;;15.00;1.00;;;;;;5091536;28;20822;-51
2021/08/17 03:27:56;;;;;;;5.83;3.60;;;14.90;1.00;;;;;;5084387;28;20449;-50
2021/08/17 03:30:24;;;;;;;6.70;3.47;;;14.90;1.00;;;;;;5082329;28;20187;-55
2021/08/17 03:32:50;;;;;;;11.30;3.80;;;14.80;1.00;;;;;;5090433;28;20469;-54
2021/08/17 03:35:16;;;;;;;8.80;3.90;;;14.80;1.00;;;;;;5091968;28;20443;-53
2021/08/17 03:37:42;;;;;;;5.93;2.90;;;14.80;1.00;;;;;;5079452;28;20514;-52
2021/08/17 03:40:11;;;;;;;4.50;3.30;;;14.70;1.00;;;;;;5071772;28;20457;-56
2021/08/17 03:42:38;;;;;;;7.10;3.47;;;14.80;1.00;;;;;;5082068;28;20198;-54
2021/08/17 03:45:05;;;;;;;5.23;3.30;;;14.80;1.00;;;;;;5085546;28;20506;-54
2021/08/17 03:47:30;;;;;;;7.10;3.20;;;14.80;1.00;;;;;;5081535;28;20452;-52
2021/08/17 03:49:56;;;;;;;7.77;3.23;;;14.90;1.00;;;;;;5078498;28;20442;-53
2021/08/17 03:52:21;;;;;;;3.97;3.37;;;14.70;1.00;;;;;;5080603;28;20198;-54
2021/08/17 03:54:47;;;;;;;4.97;3.93;;;14.80;1.00;;;;;;5074280;28;20189;-56
2021/08/17 03:57:12;;;;;;;4.50;3.07;;;14.90;1.00;;;;;;5074151;28;20510;-52
2021/08/17 03:59:38;;;;;;;6.20;3.27;;;14.90;1.00;;;;;;5073439;28;20171;-53
2021/08/17 04:02:04;;;;;;;5.60;3.30;;;15.00;1.00;;;;;;5079197;28;20210;-53
2021/08/17 04:04:29;;;;;;;5.13;3.10;;;15.20;1.00;;;;;;5072550;28;20175;-53
2021/08/17 04:06:55;;;;;;;8.20;3.90;;;15.20;1.00;;;;;;5071886;28;20198;-53
2021/08/17 04:09:20;;;;;;;6.10;3.50;;;15.20;1.00;;;;;;5078552;28;20183;-54
2021/08/17 04:11:46;;;;;;;5.00;3.37;;;15.10;1.00;;;;;;5080428;28;20186;-53
2021/08/17 04:14:11;;;;;;;3.50;3.07;;;15.20;1.00;;;;;;5085580;28;20215;-54
2021/08/17 04:16:37;;;;;;;5.70;3.53;;;15.20;1.00;;;;;;5070923;28;20172;-52
2021/08/17 04:19:03;;;;;;;7.97;3.43;;;15.20;1.00;;;;;;5081014;28;20686;-55
2021/08/17 04:21:28;;;;;;;5.73;3.40;;;15.20;1.00;;;;;;5090617;28;20213;-55
2021/08/17 04:23:56;;;;;;;5.70;3.77;;;15.30;1.00;;;;;;5071029;28;20188;-53
2021/08/17 04:26:22;;;;;;;4.83;3.30;;;15.40;1.00;;;;;;5087200;28;20175;-53
2021/08/17 04:28:47;;;;;;;6.43;3.90;;;15.40;1.00;;;;;;5079404;28;20444;-54
2021/08/17 04:31:13;;;;;;;8.30;3.40;;;15.50;1.00;;;;;;5074139;28;20183;-54
2021/08/17 04:33:38;;;;;;;6.43;3.23;;;15.40;1.00;;;;;;5089042;28;20210;-55
2021/08/17 04:36:04;;;;;;;9.83;3.17;;;15.40;1.00;;;;;;5081533;28;20179;-56
2021/08/17 04:38:29;;;;;;;6.00;3.10;;;15.50;1.00;;;;;;5090382;28;20179;-55
2021/08/17 04:40:55;;;;;;;4.60;2.90;;;15.60;1.00;;;;;;5071000;28;20281;-53
2021/08/17 04:43:21;;;;;;;4.50;3.27;;;15.50;1.00;;;;;;5073636;28;20214;-53
2021/08/17 04:45:47;;;;;;;5.77;2.80;;;15.50;1.00;;;;;;5079471;28;20531;-51
2021/08/17 04:48:12;;;;;;;3.10;2.80;;;15.30;1.00;;;;;;5084237;28;20552;-54
2021/08/17 04:50:38;;;;;;;6.47;3.10;;;15.20;1.00;;;;;;5090699;28;20544;-53
2021/08/17 04:53:04;;;;;;;3.60;3.00;;;15.40;1.00;;;;;;5082893;28;20235;-55
2021/08/17 04:55:29;;;;;;;5.87;3.83;;;15.40;1.00;;;;;;5077158;28;20179;-55
2021/08/17 04:57:58;;;;;;;5.90;2.87;;;15.40;1.00;;;;;;5085385;28;20441;-56
2021/08/17 05:00:26;;;;;;;6.50;3.07;;;15.40;1.00;;;;;;5071865;28;20176;-53
2021/08/17 05:02:53;;;;;;;5.23;3.57;;;15.40;1.00;;;;;;5090671;28;20447;-53
2021/08/17 05:05:19;;;;;;;3.87;3.40;;;15.40;1.00;;;;;;5082311;28;20430;-53
2021/08/17 05:07:45;;;;;;;4.00;3.00;;;15.30;1.00;;;;;;5075050;28;20430;-54
2021/08/17 05:10:14;;;;;;;4.20;3.30;;;15.20;1.00;;;;;;5085156;28;20464;-55
2021/08/17 05:12:40;;;;;;;4.97;3.20;;;15.40;1.00;;;;;;5072376;28;20467;-52
2021/08/17 05:15:06;;;;;;;6.70;3.40;;;15.50;1.00;;;;;;5071375;28;20433;-55
2021/08/17 05:17:32;;;;;;;3.87;3.50;;;15.60;1.00;;;;;;5084076;28;20268;-54
2021/08/17 05:19:58;;;;;;;5.00;3.07;;;15.60;1.00;;;;;;5070810;28;20515;-55
2021/08/17 05:22:24;;;;;;;4.30;3.20;;;15.60;1.00;;;;;;5083541;28;20492;-54
2021/08/17 05:24:50;;;;;;;3.27;2.90;;;15.50;1.00;;;;;;5088729;28;20608;-52
2021/08/17 05:27:15;;;;;;;5.47;3.10;;;15.40;1.00;;;;;;5070510;28;20256;-53
2021/08/17 05:29:41;;;;;;;5.20;3.23;;;15.50;1.00;;;;;;5076833;28;20270;-54
2021/08/17 05:32:06;;;;;;;4.90;2.67;;;15.50;1.00;;;;;;5080545;28;20179;-52
2021/08/17 05:34:32;;;;;;;5.40;3.60;;;15.70;1.00;;;;;;5081403;28;20187;-53
2021/08/17 05:36:58;;;;;;;6.97;3.53;;;15.60;1.00;;;;;;5075125;28;20624;-53
2021/08/17 05:39:24;;;;;;;9.03;3.87;;;15.50;1.00;;;;;;5071978;28;20449;-52
2021/08/17 05:41:50;;;;;;;3.97;2.93;;;15.40;1.00;;;;;;5074604;28;20187;-55
2021/08/17 05:44:15;;;;;;;7.10;3.37;;;15.50;1.00;;;;;;5071692;28;20456;-54
2021/08/17 05:46:41;;;;;;;4.57;3.23;;;15.60;1.00;;;;;;5072200;28;20184;-54
2021/08/17 05:49:07;;;;;;;7.33;3.27;;;15.80;1.00;;;;;;5076219;28;20189;-54
2021/08/17 05:51:32;;;;;;;4.20;2.73;;;16.10;1.00;;;;;;5075023;28;20186;-55
2021/08/17 05:53:58;;;;;;;4.53;3.10;;;16.20;1.00;;;;;;5080503;28;20237;-55
2021/08/17 05:56:23;;;;;;;5.70;2.87;;;16.00;1.00;;;;;;5073033;28;20175;-54
2021/08/17 05:58:49;;;;;;;4.90;3.10;;;16.10;1.00;;;;;;5094237;28;20206;-52
2021/08/17 06:01:14;;;;;;;8.43;3.43;;;18.80;1.00;;;;;;5091736;28;20211;-53
2021/08/17 06:03:40;;;;;;;4.77;2.73;;;15.90;1.00;;;;;;5086328;28;20194;-53
2021/08/17 06:06:05;;;;;;;6.87;3.00;;;15.80;1.00;;;;;;5074021;28;20191;-55
2021/08/17 06:08:31;;;;;;;3.73;2.87;;;15.80;1.00;;;;;;5089358;28;20182;-52
2021/08/17 06:10:56;;;;;;;4.73;3.07;;;16.60;1.00;;;;;;5081713;28;20645;-53
2021/08/17 06:13:23;;;;;;;4.13;2.87;;;16.30;1.00;;;;;;5083404;28;20230;-56
2021/08/17 06:15:50;;;;;;;3.63;3.20;;;16.50;1.00;;;;;;5089100;28;20179;-53
2021/08/17 06:18:15;;;;;;;4.00;2.70;;;16.30;1.00;;;;;;5082914;28;20555;-51
2021/08/17 06:20:41;;;;;;;3.70;2.50;;;16.40;1.00;;;;;;5087821;28;20528;-55
2021/08/17 06:23:06;;;;;;;5.10;3.10;;;16.40;1.00;;;;;;5087699;28;20194;-52
2021/08/17 06:25:34;;;;;;;4.53;3.20;;;16.50;1.00;;;;;;5079811;28;20715;-56
2021/08/17 06:27:59;;;;;;;6.97;2.97;;;16.40;1.00;;;;;;5086393;28;20187;-57
2021/08/17 06:30:25;;;;;;;4.43;2.57;;;16.50;1.00;;;;;;5077391;28;20901;-54
2021/08/17 06:32:51;;;;;;;9.30;3.23;;;16.70;1.00;;;;;;5088713;28;20252;-56
2021/08/17 06:35:17;;;;;;;7.60;3.37;;;16.70;1.00;;;;;;5091157;28;20179;-55
2021/08/17 06:37:43;;;;;;;7.33;3.23;;;16.70;1.00;;;;;;5074511;28;20426;-54
2021/08/17 06:40:09;;;;;;;6.27;3.20;;;16.60;1.00;;;;;;5075058;28;20179;-52
2021/08/17 06:42:36;;;;;;;5.53;3.00;;;16.60;1.00;;;;;;5075475;28;20541;-53
2021/08/17 06:45:02;;;;;;;5.43;2.97;;;16.50;1.00;;;;;;5085266;28;20469;-54
2021/08/17 06:47:27;;;;;;;5.30;3.13;;;16.70;1.00;;;;;;5088967;28;21017;-53
2021/08/17 06:49:53;;;;;;;8.23;2.80;;;17.10;1.00;;;;;;5093300;28;20531;-52
2021/08/17 06:52:18;;;;;;;4.50;2.83;;;17.10;1.00;;;;;;5084069;28;20191;-54
2021/08/17 06:54:44;;;;;;;3.13;2.33;;;17.00;1.00;;;;;;5075882;28;20183;-54
2021/08/17 06:57:09;;;;;;;10.57;3.20;;;17.10;1.00;;;;;;5080927;28;20224;-54
2021/08/17 06:59:35;;;;;;;4.57;2.80;;;17.10;1.00;;;;;;5090462;28;20181;-54
2021/08/17 07:02:00;;;;;;;8.00;3.20;;;17.30;1.00;;;;;;5086370;28;20176;-54
2021/08/17 07:04:26;;;;;;;6.90;3.20;;;17.10;1.00;;;;;;5076236;28;20190;-54
2021/08/17 07:06:51;;;;;;;7.27;3.10;;;17.20;1.00;;;;;;5091172;28;20270;-56
2021/08/17 07:09:17;;;;;;;2.90;2.53;;;17.30;1.00;;;;;;5078751;28;20222;-52
2021/08/17 07:11:42;;;;;;;5.43;2.83;;;17.50;1.00;;;;;;5089274;28;20192;-51
2021/08/17 07:14:08;;;;;;;4.30;2.80;;;17.70;1.00;;;;;;5072870;28;20203;-54
2021/08/17 07:16:35;;;;;;;2.60;2.40;;;17.60;1.00;;;;;;5082550;28;20218;-56
2021/08/17 07:19:01;;;;;;;4.53;2.97;;;17.70;1.00;;;;;;5092218;28;20215;-53
2021/08/17 07:21:26;;;;;;;4.03;2.90;;;17.60;1.00;;;;;;5079296;28;20445;-54
2021/08/17 07:23:52;;;;;;;3.77;3.00;;;17.50;1.00;;;;;;5082258;28;20170;-54
2021/08/17 07:26:18;;;;;;;5.27;2.43;;;17.40;1.00;;;;;;5092765;28;20197;-53
2021/08/17 07:28:44;;;;;;;5.73;2.80;;;17.30;1.00;;;;;;5082700;28;20187;-53
2021/08/17 07:31:10;;;;;;;5.30;3.00;;;17.20;1.00;;;;;;5081481;28;20445;-56
2021/08/17 07:33:35;;;;;;;3.80;2.90;;;17.20;1.00;;;;;;5072450;28;20207;-54
2021/08/17 07:36:01;;;;;;;6.43;2.97;;;17.20;1.00;;;;;;5083770;28;20183;-52
2021/08/17 07:38:26;;;;;;;6.73;3.43;;;17.30;1.00;;;;;;5083285;28;20517;-51
2021/08/17 07:40:52;;;;;;;4.30;3.00;;;17.10;1.00;;;;;;5073469;28;20273;-53
2021/08/17 07:43:18;;;;;;;3.70;2.90;;;17.20;1.00;;;;;;5087555;28;20278;-55
2021/08/17 07:45:43;;;;;;;3.97;2.80;;;16.40;1.00;;;;;;5088636;28;20195;-54
2021/08/17 07:48:09;;;;;;;5.57;2.90;;;17.50;1.00;;;;;;5078981;28;20202;-53
2021/08/17 07:50:39;;;;;;;6.27;2.90;;;17.70;1.00;;;;;;5092075;28;20187;-53
2021/08/17 07:53:08;;;;;;;5.50;3.37;;;18.00;1.00;;;;;;5079892;28;20466;-54
2021/08/17 07:55:34;;;;;;;7.53;3.03;;;18.10;1.00;;;;;;5081379;28;20724;-54
2021/08/17 07:58:00;;;;;;;4.83;2.60;;;18.10;1.00;;;;;;5081903;28;20484;-54
2021/08/17 08:00:26;;;;;;;5.13;2.67;;;18.10;1.00;;;;;;5081471;28;20194;-54
2021/08/17 08:02:51;;;;;;;3.47;2.23;;;18.30;1.00;;;;;;5081678;28;20538;-55
2021/08/17 08:05:17;;;;;;;6.00;2.67;;;18.30;1.00;;;;;;5088928;28;20207;-53
2021/08/17 08:07:42;;;;;;;4.80;3.00;;;18.10;1.00;;;;;;5092235;28;20194;-54
2021/08/17 08:10:09;;;;;;;7.50;3.10;;;18.10;1.00;;;;;;5080772;28;20188;-52
2021/08/17 08:12:34;;;;;;;3.50;2.80;;;18.20;1.00;;;;;;5082645;28;20209;-56
2021/08/17 08:15:00;;;;;;;6.07;3.20;;;18.10;1.00;;;;;;5087099;28;20432;-53
2021/08/17 08:17:25;;;;;;;5.50;2.80;;;18.10;1.00;;;;;;5085232;28;20260;-53
2021/08/17 08:19:51;;;;;;;4.50;3.07;;;18.00;1.00;;;;;;5091866;28;20637;-53
2021/08/17 08:22:16;;;;;;;4.70;2.60;;;17.90;1.00;;;;;;5089000;28;20179;-53
2021/08/17 08:24:42;;;;;;;4.57;2.80;;;17.70;1.00;;;;;;5091021;28;20179;-52
2021/08/17 08:27:08;;;;;;;4.17;3.00;;;17.60;1.00;;;;;;5080534;28;20175;-54
2021/08/17 08:29:34;;;;;;;7.20;2.87;;;17.60;1.00;;;;;;5076317;28;20279;-53
2021/08/17 08:32:00;;;;;;;6.47;2.73;;;17.60;1.00;;;;;;5071447;28;20865;-52
2021/08/17 08:34:26;;;;;;;3.07;2.53;;;17.60;1.00;;;;;;5074578;28;20730;-55
2021/08/17 08:36:51;;;;;;;8.33;2.60;;;17.60;1.00;;;;;;5082595;28;20943;-54
2021/08/17 08:39:18;;;;;;;4.13;2.50;;;17.90;1.00;;;;;;5071029;28;20196;-55
2021/08/17 08:41:45;;;;;;;4.07;2.63;;;17.70;1.00;;;;;;5074954;28;20264;-52
2021/08/17 08:44:12;;;;;;;6.87;2.90;;;18.10;1.00;;;;;;5078179;28;20479;-51
2021/08/17 08:46:39;;;;;;;5.80;3.47;;;18.10;1.00;;;;;;5071195;28;20437;-54
2021/08/17 08:49:04;;;;;;;7.90;2.50;;;17.80;1.00;;;;;;5076575;28;20467;-54
2021/08/17 08:51:30;;;;;;;5.40;2.70;;;17.70;1.00;;;;;;5090861;28;20445;-54
2021/08/17 08:53:56;;;;;;;3.53;2.93;;;17.70;1.00;;;;;;5088886;28;20466;-55
2021/08/17 08:56:26;;;;;;;7.40;3.07;;;17.60;1.00;;;;;;5089342;28;20549;-55
2021/08/17 08:58:52;;;;;;;4.43;2.60;;;17.60;1.00;;;;;;5090946;28;20270;-52
2021/08/17 09:01:23;;;;;;;4.53;2.77;;;17.40;1.00;;;;;;5085325;28;20445;-54
2021/08/17 09:03:50;;;;;;;5.10;2.43;;;17.40;1.00;;;;;;5088569;28;20875;-54
2021/08/17 09:06:20;;;;;;;4.20;2.80;;;17.50;1.00;;;;;;5075264;28;20448;-56
2021/08/17 09:08:48;;;;;;;4.80;3.37;;;17.50;1.00;;;;;;5071256;28;20480;-55
2021/08/17 09:11:18;;;;;;;6.80;3.10;;;17.60;1.00;;;;;;5073783;28;20448;-52
2021/08/17 09:13:44;;;;;;;3.60;2.73;;;17.60;1.00;;;;;;5070449;28;20461;-53
2021/08/17 09:16:32;;;;;;;5.20;2.70;;;17.60;1.00;;;;;;5082387;28;20486;-55
2021/08/17 09:19:00;;;;;;;3.10;2.40;;;17.40;1.00;;;;;;5072774;28;20229;-52
2021/08/17 09:21:39;;;;;;;5.80;3.13;;;17.80;1.00;;;;;;5073778;28;20480;-52
2021/08/17 09:24:35;;;;;;;4.20;3.10;;;17.80;1.00;;;;;;5090750;28;20416;-52
2021/08/17 09:27:06;;;;;;;8.63;3.30;;;18.20;1.00;;;;;;5072653;28;20448;-55
2021/08/17 09:29:38;;;;;;;6.17;2.50;;;18.30;1.00;;;;;;5090695;28;20437;-51
2021/08/17 09:32:27;;;;;;;8.27;2.57;;;18.30;1.00;;;;;;5090418;28;20996;-52
2021/08/17 09:34:58;;;;;;;4.10;2.60;;;18.20;1.00;;;;;;5070423;28;20521;-53
2021/08/17 09:37:29;;;;;;;5.70;2.50;;;18.40;1.00;;;;;;5070591;28;20437;-53
2021/08/17 09:39:56;;;;;;;6.77;3.50;;;18.50;1.00;;;;;;5070096;28;20433;-56
2021/08/17 09:42:32;;;;;;;6.13;2.87;;;18.40;1.00;;;;;;5070353;28;20435;-55
2021/08/17 09:45:01;;;;;;;4.50;2.80;;;18.30;1.00;;;;;;5070393;28;20949;-54
2021/08/17 09:47:27;;;;;;;6.20;3.37;;;18.30;1.00;;;;;;5071276;28;20486;-53
2021/08/17 09:49:53;;;;;;;4.00;3.60;;;18.40;1.00;;;;;;5070218;28;20946;-53
2021/08/17 09:52:19;;;;;;;3.30;2.83;;;18.50;1.00;;;;;;5069970;28;20445;-51
2021/08/17 09:54:46;;;;;;;4.03;3.07;;;18.50;1.00;;;;;;5070480;28;20208;-53
2021/08/17 09:57:13;;;;;;;7.30;3.20;;;18.80;1.00;;;;;;5089918;28;20183;-55
2021/08/17 09:59:41;;;;;;;5.37;2.87;;;19.00;1.00;;;;;;5090458;28;20517;-53
2021/08/17 10:02:07;;;;;;;4.27;2.67;;;18.90;1.00;;;;;;5080644;28;20430;-55
2021/08/17 10:04:34;;;;;;;4.63;3.10;;;18.80;1.00;;;;;;5086961;28;20439;-54
2021/08/17 10:07:02;;;;;;;7.10;3.13;;;18.70;1.00;;;;;;5086177;28;20977;-56
2021/08/17 10:09:29;;;;;;;6.13;3.10;;;18.80;1.00;;;;;;5069944;28;20811;-53
2021/08/17 10:11:55;;;;;;;5.30;3.40;;;18.90;1.00;;;;;;5067705;28;20866;-52
2021/08/17 10:14:21;;;;;;;4.40;2.60;;;19.20;1.00;;;;;;5070108;28;20493;-53
2021/08/17 10:16:46;;;;;;;6.07;2.63;;;19.40;1.00;;;;;;5070183;28;20433;-54
2021/08/17 10:19:15;;;;;;;9.20;3.03;;;19.40;1.00;;;;;;5070153;28;20492;-55
2021/08/17 10:21:44;;;;;;;5.97;2.67;;;19.50;1.00;;;;;;5070379;28;20175;-53
2021/08/17 10:24:40;;;;;;;4.17;2.87;;;19.80;1.00;;;;;;5079515;28;20535;-53
2021/08/17 10:27:25;;;;;;;6.23;3.00;;;19.70;1.00;;;;;;5090231;28;20522;-53
2021/08/17 10:29:53;;;;;;;4.93;2.90;;;19.40;1.00;;;;;;5088994;28;20456;-53
2021/08/17 10:32:38;;;;;;;2.97;2.67;;;19.70;1.00;;;;;;5086310;28;20444;-55
2021/08/17 10:35:04;;;;;;;9.07;3.83;;;19.90;1.00;;;;;;5075573;28;20441;-54
2021/08/17 10:37:30;;;;;;;6.20;3.00;;;19.60;1.00;;;;;;5084729;28;20460;-54
2021/08/17 10:39:56;;;;;;;6.07;3.33;;;19.30;1.00;;;;;;5093951;28;20464;-55
2021/08/17 10:42:26;;;;;;;4.27;2.20;;;19.20;1.00;;;;;;5093618;28;20186;-55
2021/08/17 10:44:53;;;;;;;5.23;2.80;;;19.70;1.00;;;;;;5092432;28;20202;-54
2021/08/17 10:47:31;;;;;;;4.80;2.60;;;19.70;1.00;;;;;;5093651;28;20914;-53
2021/08/17 10:49:57;;;;;;;4.10;2.43;;;20.00;1.00;;;;;;5093721;28;20432;-54
2021/08/17 10:52:35;;;;;;;5.10;3.10;;;20.10;1.00;;;;;;5093350;28;20427;-55
2021/08/17 10:55:20;;;;;;;9.87;3.10;;;19.80;1.00;;;;;;5080861;28;20197;-55
2021/08/17 10:57:53;;;;;;;4.80;2.90;;;19.70;1.00;;;;;;5076604;28;20456;-54
2021/08/17 11:00:48;;;;;;;6.20;3.20;;;19.80;1.00;;;;;;5073163;28;20457;-55
2021/08/17 11:03:34;;;;;;;4.87;3.40;;;20.00;1.00;;;;;;5090116;28;20432;-53
2021/08/17 11:06:00;;;;;;;7.27;3.70;;;20.10;1.00;;;;;;5093460;28;20436;-55
2021/08/17 11:08:33;;;;;;;6.63;3.00;;;20.30;1.00;;;;;;5093147;28;20513;-52
2021/08/17 11:11:00;;;;;;;5.50;3.17;;;20.20;1.00;;;;;;5093181;28;20189;-53
2021/08/17 11:13:26;;;;;;;6.33;2.60;;;20.10;1.00;;;;;;5083372;28;20489;-53
2021/08/17 11:16:12;;;;;;;5.00;2.77;;;20.00;1.00;;;;;;5083491;28;20498;-54
2021/08/17 11:18:52;;;;;;;9.40;2.60;;;20.40;1.00;;;;;;5092814;28;20468;-54
2021/08/17 11:21:31;;;;;;;4.43;2.73;;;20.40;1.00;;;;;;5093321;28;20494;-53
2021/08/17 11:24:13;;;;;;;3.93;2.83;;;20.20;1.00;;;;;;5084725;28;21107;-54
2021/08/17 11:26:41;;;;;;;6.27;2.70;;;20.60;1.00;;;;;;5072855;28;20427;-52
2021/08/17 11:29:07;;;;;;;4.00;2.80;;;20.60;1.00;;;;;;5071666;28;20437;-54
2021/08/17 11:31:43;;;;;;;3.60;2.57;;;20.10;1.00;;;;;;5087503;28;20516;-51
2021/08/17 11:34:17;;;;;;;4.50;3.27;;;19.90;1.00;;;;;;5092693;28;20301;-56
2021/08/17 11:37:05;;;;;;;4.20;2.20;;;19.60;1.00;;;;;;5092939;28;20457;-53
2021/08/17 11:39:43;;;;;;;7.53;3.20;;;19.50;1.00;;;;;;5075509;28;20479;-55
2021/08/17 11:42:22;;;;;;;7.27;2.30;;;19.70;1.00;;;;;;5072547;28;20780;-55
2021/08/17 11:44:51;;;;;;;2.83;2.53;;;19.80;1.00;;;;;;5086739;28;20525;-53
2021/08/17 11:47:19;;;;;;;5.80;2.80;;;20.00;1.00;;;;;;5072512;28;20500;-54
2021/08/17 11:49:46;;;;;;;7.80;3.37;;;19.80;1.00;;;;;;5072185;28;20429;-55
2021/08/17 11:52:22;;;;;;;6.03;2.90;;;19.70;1.00;;;;;;5072188;28;20432;-53
2021/08/17 11:54:53;;;;;;;5.97;2.40;;;19.80;1.00;;;;;;5075612;28;20445;-54
2021/08/17 11:57:25;;;;;;;5.87;2.70;;;19.90;1.00;;;;;;5072198;28;21014;-53
2021/08/17 11:59:51;;;;;;;5.50;1.90;;;19.80;1.00;;;;;;5083529;28;20779;-54
2021/08/17 12:02:23;;;;;;;6.50;2.43;;;19.20;1.00;;;;;;5072201;28;20901;-52
2021/08/17 12:04:50;;;;;;;4.07;2.40;;;19.90;1.00;;;;;;5072054;28;20430;-55
2021/08/17 12:07:16;;;;;;;3.93;2.43;;;19.80;1.00;;;;;;5085521;28;20433;-51
2021/08/17 12:09:44;;;;;;;5.10;2.80;;;20.10;1.00;;;;;;5079150;28;20448;-55
2021/08/17 12:12:12;;;;;;;4.00;2.63;;;20.10;1.00;;;;;;5070457;28;20937;-56
2021/08/17 12:14:39;;;;;;;5.50;2.57;;;20.20;1.00;;;;;;5071750;28;20469;-53
2021/08/17 12:17:07;;;;;;;9.17;2.93;;;20.30;1.00;;;;;;5070350;28;20434;-52
2021/08/17 12:19:33;;;;;;;5.60;3.00;;;20.20;1.00;;;;;;5071691;28;20435;-53
2021/08/17 12:22:01;;;;;;;5.30;2.90;;;20.20;1.00;;;;;;5075977;28;20444;-52
2021/08/17 12:24:30;;;;;;;6.33;2.80;;;20.20;1.00;;;;;;5088455;28;20452;-54
2021/08/17 12:27:04;;;;;;;5.80;3.03;;;20.20;1.00;;;;;;5091860;28;20468;-55
2021/08/17 12:29:41;;;;;;;5.10;2.90;;;20.20;1.00;;;;;;5080375;28;20939;-55
2021/08/17 12:32:28;;;;;;;6.50;2.47;;;20.00;1.00;;;;;;5072295;28;20448;-54
2021/08/17 12:35:01;;;;;;;4.30;2.50;;;19.80;1.00;;;;;;5071165;28;20491;-56
2021/08/17 12:37:28;;;;;;;5.37;2.57;;;19.90;1.00;;;;;;5082127;28;20499;-54
2021/08/17 12:40:00;;;;;;;2.83;2.40;;;20.20;1.00;;;;;;5085637;28;20400;-55
2021/08/17 12:42:27;;;;;;;5.27;2.63;;;20.70;1.00;;;;;;5084377;28;20421;-53
2021/08/17 12:44:53;;;;;;;6.03;2.67;;;20.80;1.00;;;;;;5080442;28;20475;-55
2021/08/17 12:47:20;;;;;;;7.37;3.23;;;20.90;1.00;;;;;;5071238;28;20522;-53
2021/08/17 12:50:05;;;;;;;4.67;2.83;;;21.10;1.00;;;;;;5071253;28;20495;-56
2021/08/17 12:52:32;;;;;;;6.93;2.90;;;20.80;1.00;;;;;;5080935;28;21106;-55
2021/08/17 12:55:31;;;;;;;7.47;3.77;;;20.80;1.00;;;;;;5091239;28;20779;-54
2021/08/17 12:57:56;;;;;;;4.50;2.67;;;20.60;1.00;;;;;;5077655;28;20481;-56
2021/08/17 13:00:24;;;;;;;5.00;2.87;;;20.30;1.00;;;;;;5091085;28;20465;-52